sensor_id;sensor_type;location;lat;lon;timestamp;pressure;altitude;pressure_sealevel;temperature;humidity
21781;BME280;52576;53.614;9.894;2023-06-01T00:00:26;101957.25;;;11.46;74.34
21781;BME280;52576;53.614;9.894;2023-06-01T00:02:31;101946.00;;;11.44;74.35
21781;BME280;52576;53.614;9.894;2023-06-01T00:04:35;101955.63;;;11.43;74.51
21781;BME280;52576;53.614;9.894;2023-06-01T00:06:42;101954.81;;;11.43;74.51
21781;BME280;52576;53.614;9.894;2023-06-01T00:08:47;101945.25;;;11.42;74.52
21781;BME280;52576;53.614;9.894;2023-06-01T00:10:51;101946.16;;;11.41;74.58
21781;BME280;52576;53.614;9.894;2023-06-01T00:12:55;101945.31;;;11.40;74.65
21781;BME280;52576;53.614;9.894;2023-06-01T00:14:58;101945.41;;;11.39;74.50
21781;BME280;52576;53.614;9.894;2023-06-01T00:17:02;101948.94;;;11.38;74.64
21781;BME280;52576;53.614;9.894;2023-06-01T00:19:09;101944.56;;;11.38;74.74
21781;BME280;52576;53.614;9.894;2023-06-01T00:21:13;101941.06;;;11.38;74.51
21781;BME280;52576;53.614;9.894;2023-06-01T00:23:16;101946.31;;;11.38;74.60
21781;BME280;52576;53.614;9.894;2023-06-01T00:25:22;101946.41;;;11.36;74.59
21781;BME280;52576;53.614;9.894;2023-06-01T00:27:25;101944.63;;;11.37;74.56
21781;BME280;52576;53.614;9.894;2023-06-01T00:29:29;101941.16;;;11.36;74.45
21781;BME280;52576;53.614;9.894;2023-06-01T00:31:32;101944.63;;;11.37;74.30
21781;BME280;52576;53.614;9.894;2023-06-01T00:33:36;101949.88;;;11.37;74.29
21781;BME280;52576;53.614;9.894;2023-06-01T00:35:41;101951.72;;;11.35;74.12
21781;BME280;52576;53.614;9.894;2023-06-01T00:37:46;101943.94;;;11.33;74.20
21781;BME280;52576;53.614;9.894;2023-06-01T00:39:49;101944.94;;;11.31;74.38
21781;BME280;52576;53.614;9.894;2023-06-01T00:41:53;101948.50;;;11.30;74.23
21781;BME280;52576;53.614;9.894;2023-06-01T00:43:59;101949.50;;;11.27;74.31
21781;BME280;52576;53.614;9.894;2023-06-01T00:46:03;101954.03;;;11.23;74.52
21781;BME280;52576;53.614;9.894;2023-06-01T00:48:07;101941.06;;;11.20;74.55
21781;BME280;52576;53.614;9.894;2023-06-01T00:50:11;101947.25;;;11.19;74.55
21781;BME280;52576;53.614;9.894;2023-06-01T00:52:17;101949.09;;;11.17;74.59
21781;BME280;52576;53.614;9.894;2023-06-01T00:54:21;101947.44;;;11.16;74.68
21781;BME280;52576;53.614;9.894;2023-06-01T00:56:24;101953.53;;;11.17;74.74
21781;BME280;52576;53.614;9.894;2023-06-01T00:58:28;101947.44;;;11.16;74.45
21781;BME280;52576;53.614;9.894;2023-06-01T01:00:33;101945.66;;;11.17;74.57
21781;BME280;52576;53.614;9.894;2023-06-01T01:02:37;101938.59;;;11.17;74.36
21781;BME280;52576;53.614;9.894;2023-06-01T01:04:41;101937.66;;;11.18;74.42
21781;BME280;52576;53.614;9.894;2023-06-01T01:06:49;101935.06;;;11.18;74.38
21781;BME280;52576;53.614;9.894;2023-06-01T01:09:10;101940.28;;;11.18;74.19
21781;BME280;52576;53.614;9.894;2023-06-01T01:11:21;101922.84;;;11.17;74.02
21781;BME280;52576;53.614;9.894;2023-06-01T01:13:30;101926.44;;;11.16;74.06
21781;BME280;52576;53.614;9.894;2023-06-01T01:15:44;101929.91;;;11.17;73.91
21781;BME280;52576;53.614;9.894;2023-06-01T01:17:56;101929.97;;;11.15;74.03
21781;BME280;52576;53.614;9.894;2023-06-01T01:20:07;101931.75;;;11.15;73.84
21781;BME280;52576;53.614;9.894;2023-06-01T01:22:22;101923.97;;;11.13;73.77
21781;BME280;52576;53.614;9.894;2023-06-01T01:24:38;101933.69;;;11.11;73.48
21781;BME280;52576;53.614;9.894;2023-06-01T01:26:52;101935.53;;;11.09;73.53
21781;BME280;52576;53.614;9.894;2023-06-01T01:29:06;101933.84;;;11.08;73.35
21781;BME280;52576;53.614;9.894;2023-06-01T01:31:13;101921.63;;;11.07;73.37
21781;BME280;52576;53.614;9.894;2023-06-01T01:33:18;101917.25;;;11.08;73.40
21781;BME280;52576;53.614;9.894;2023-06-01T01:35:22;101932.13;;;11.07;73.37
21781;BME280;52576;53.614;9.894;2023-06-01T01:37:26;101925.19;;;11.06;73.32
21781;BME280;52576;53.614;9.894;2023-06-01T01:39:31;101926.03;;;11.07;73.41
21781;BME280;52576;53.614;9.894;2023-06-01T01:41:34;101928.75;;;11.05;73.32
21781;BME280;52576;53.614;9.894;2023-06-01T01:43:38;101919.94;;;11.06;73.12
21781;BME280;52576;53.614;9.894;2023-06-01T01:45:46;101919.94;;;11.06;73.37
21781;BME280;52576;53.614;9.894;2023-06-01T01:47:56;101913.00;;;11.05;73.46
21781;BME280;52576;53.614;9.894;2023-06-01T01:50:05;101914.69;;;11.06;73.42
21781;BME280;52576;53.614;9.894;2023-06-01T01:52:12;101908.53;;;11.07;73.55
21781;BME280;52576;53.614;9.894;2023-06-01T01:54:19;101917.16;;;11.09;73.54
21781;BME280;52576;53.614;9.894;2023-06-01T01:56:23;101916.25;;;11.10;73.40
21781;BME280;52576;53.614;9.894;2023-06-01T01:58:29;101918.72;;;11.13;73.36
21781;BME280;52576;53.614;9.894;2023-06-01T02:00:33;101906.44;;;11.14;73.46
21781;BME280;52576;53.614;9.894;2023-06-01T02:02:38;101909.91;;;11.14;73.43
21781;BME280;52576;53.614;9.894;2023-06-01T02:04:43;101902.91;;;11.15;73.39
21781;BME280;52576;53.614;9.894;2023-06-01T02:06:48;101903.66;;;11.17;73.31
21781;BME280;52576;53.614;9.894;2023-06-01T02:08:52;101905.44;;;11.16;73.22
21781;BME280;52576;53.614;9.894;2023-06-01T02:10:56;101899.22;;;11.17;73.29
21781;BME280;52576;53.614;9.894;2023-06-01T02:12:59;101906.28;;;11.17;73.21
21781;BME280;52576;53.614;9.894;2023-06-01T02:15:04;101901.84;;;11.17;73.28
21781;BME280;52576;53.614;9.894;2023-06-01T02:17:07;101904.47;;;11.17;73.24
21781;BME280;52576;53.614;9.894;2023-06-01T02:19:12;101900.19;;;11.16;73.25
21781;BME280;52576;53.614;9.894;2023-06-01T02:21:18;101902.81;;;11.16;73.15
21781;BME280;52576;53.614;9.894;2023-06-01T02:23:22;101900.19;;;11.16;73.08
21781;BME280;52576;53.614;9.894;2023-06-01T02:25:25;101894.19;;;11.14;73.02
21781;BME280;52576;53.614;9.894;2023-06-01T02:27:29;101893.41;;;11.12;73.10
21781;BME280;52576;53.614;9.894;2023-06-01T02:29:32;101893.41;;;11.12;73.24
21781;BME280;52576;53.614;9.894;2023-06-01T02:31:36;101890.00;;;11.10;73.18
21781;BME280;52576;53.614;9.894;2023-06-01T02:33:40;101890.00;;;11.10;73.34
21781;BME280;52576;53.614;9.894;2023-06-01T02:35:45;101892.63;;;11.10;73.06
21781;BME280;52576;53.614;9.894;2023-06-01T02:37:48;101888.38;;;11.08;72.93
21781;BME280;52576;53.614;9.894;2023-06-01T02:39:52;101894.47;;;11.08;73.03
21781;BME280;52576;53.614;9.894;2023-06-01T02:41:56;101892.72;;;11.09;72.87
21781;BME280;52576;53.614;9.894;2023-06-01T02:44:00;101886.69;;;11.07;72.61
21781;BME280;52576;53.614;9.894;2023-06-01T02:46:05;101886.75;;;11.05;72.50
21781;BME280;52576;53.614;9.894;2023-06-01T02:48:12;101883.38;;;11.03;72.58
21781;BME280;52576;53.614;9.894;2023-06-01T02:50:16;101886.91;;;11.02;72.65
21781;BME280;52576;53.614;9.894;2023-06-01T02:52:25;101885.22;;;11.01;72.75
21781;BME280;52576;53.614;9.894;2023-06-01T02:54:29;101879.97;;;11.01;72.85
21781;BME280;52576;53.614;9.894;2023-06-01T02:56:39;101880.81;;;11.02;72.78
21781;BME280;52576;53.614;9.894;2023-06-01T02:59:09;101881.66;;;11.02;72.52
21781;BME280;52576;53.614;9.894;2023-06-01T03:01:18;101885.22;;;11.01;72.63
21781;BME280;52576;53.614;9.894;2023-06-01T03:03:22;101876.56;;;10.99;72.56
21781;BME280;52576;53.614;9.894;2023-06-01T03:05:27;101877.50;;;10.98;72.58
21781;BME280;52576;53.614;9.894;2023-06-01T03:07:53;101878.41;;;10.97;72.68
21781;BME280;52576;53.614;9.894;2023-06-01T03:10:00;101882.81;;;10.97;72.72
21781;BME280;52576;53.614;9.894;2023-06-01T03:12:22;101874.09;;;10.96;72.77
21781;BME280;52576;53.614;9.894;2023-06-01T03:14:26;101870.63;;;10.96;72.73
21781;BME280;52576;53.614;9.894;2023-06-01T03:16:30;101875.03;;;10.95;72.72
21781;BME280;52576;53.614;9.894;2023-06-01T03:18:42;101868.94;;;10.95;72.72
21781;BME280;52576;53.614;9.894;2023-06-01T03:20:45;101871.47;;;10.96;72.68
21781;BME280;52576;53.614;9.894;2023-06-01T03:22:50;101863.69;;;10.95;72.66
21781;BME280;52576;53.614;9.894;2023-06-01T03:24:55;101868.09;;;10.94;72.69
21781;BME280;52576;53.614;9.894;2023-06-01T03:27:05;101866.38;;;10.93;72.54
21781;BME280;52576;53.614;9.894;2023-06-01T03:29:11;101864.59;;;10.94;72.65
21781;BME280;52576;53.614;9.894;2023-06-01T03:31:16;101862.84;;;10.94;72.62
21781;BME280;52576;53.614;9.894;2023-06-01T03:33:21;101864.53;;;10.95;72.64
21781;BME280;52576;53.614;9.894;2023-06-01T03:35:25;101871.47;;;10.96;72.53
21781;BME280;52576;53.614;9.894;2023-06-01T03:37:29;101866.22;;;10.96;72.33
21781;BME280;52576;53.614;9.894;2023-06-01T03:39:32;101869.78;;;10.95;72.27
21781;BME280;52576;53.614;9.894;2023-06-01T03:41:40;101870.63;;;10.96;72.21
21781;BME280;52576;53.614;9.894;2023-06-01T03:43:44;101871.47;;;10.96;72.17
21781;BME280;52576;53.614;9.894;2023-06-01T03:45:47;101876.72;;;10.96;72.18
21781;BME280;52576;53.614;9.894;2023-06-01T03:47:51;101864.53;;;10.95;72.19
21781;BME280;52576;53.614;9.894;2023-06-01T03:49:55;101863.59;;;10.96;72.20
21781;BME280;52576;53.614;9.894;2023-06-01T03:52:00;101861.75;;;10.98;72.21
21781;BME280;52576;53.614;9.894;2023-06-01T03:54:04;101864.38;;;10.98;72.38
21781;BME280;52576;53.614;9.894;2023-06-01T03:56:07;101850.34;;;10.99;72.43
21781;BME280;52576;53.614;9.894;2023-06-01T03:58:15;101850.19;;;11.02;72.52
21781;BME280;52576;53.614;9.894;2023-06-01T04:00:21;101850.97;;;11.04;72.54
21781;BME280;52576;53.614;9.894;2023-06-01T04:02:26;101850.03;;;11.05;72.35
21781;BME280;52576;53.614;9.894;2023-06-01T04:04:30;101856.06;;;11.07;72.40
21781;BME280;52576;53.614;9.894;2023-06-01T04:06:35;101855.97;;;11.09;72.32
21781;BME280;52576;53.614;9.894;2023-06-01T04:08:38;101850.66;;;11.10;72.35
21781;BME280;52576;53.614;9.894;2023-06-01T04:10:50;101854.97;;;11.11;72.25
21781;BME280;52576;53.614;9.894;2023-06-01T04:12:54;101849.72;;;11.11;72.18
21781;BME280;52576;53.614;9.894;2023-06-01T04:15:02;101854.97;;;11.11;71.93
21781;BME280;52576;53.614;9.894;2023-06-01T04:17:06;101851.41;;;11.12;71.80
21781;BME280;52576;53.614;9.894;2023-06-01T04:19:12;101846.16;;;11.12;71.88
21781;BME280;52576;53.614;9.894;2023-06-01T04:21:16;101856.59;;;11.14;72.04
21781;BME280;52576;53.614;9.894;2023-06-01T04:23:20;101856.59;;;11.14;71.86
21781;BME280;52576;53.614;9.894;2023-06-01T04:25:23;101854.81;;;11.14;71.77
21781;BME280;52576;53.614;9.894;2023-06-01T04:27:27;101854.81;;;11.14;71.77
21781;BME280;52576;53.614;9.894;2023-06-01T04:29:31;101850.41;;;11.15;71.67
21781;BME280;52576;53.614;9.894;2023-06-01T04:31:37;101861.75;;;11.15;71.79
21781;BME280;52576;53.614;9.894;2023-06-01T04:33:41;101847.72;;;11.16;71.50
21781;BME280;52576;53.614;9.894;2023-06-01T04:35:44;101838.88;;;11.17;71.46
21781;BME280;52576;53.614;9.894;2023-06-01T04:37:49;101838.88;;;11.17;71.26
21781;BME280;52576;53.614;9.894;2023-06-01T04:39:52;101840.56;;;11.18;71.31
21781;BME280;52576;53.614;9.894;2023-06-01T04:41:56;101845.66;;;11.21;71.22
21781;BME280;52576;53.614;9.894;2023-06-01T04:44:00;101843.91;;;11.22;71.08
21781;BME280;52576;53.614;9.894;2023-06-01T04:46:04;101843.81;;;11.23;71.05
21781;BME280;52576;53.614;9.894;2023-06-01T04:48:09;101843.81;;;11.23;71.08
21781;BME280;52576;53.614;9.894;2023-06-01T04:50:33;101841.88;;;11.27;71.00
21781;BME280;52576;53.614;9.894;2023-06-01T04:52:40;101838.41;;;11.27;70.88
21781;BME280;52576;53.614;9.894;2023-06-01T04:54:45;101838.25;;;11.30;70.94
21781;BME280;52576;53.614;9.894;2023-06-01T04:56:48;101829.44;;;11.31;70.84
21781;BME280;52576;53.614;9.894;2023-06-01T04:58:54;101828.53;;;11.32;71.00
21781;BME280;52576;53.614;9.894;2023-06-01T05:00:59;101838.00;;;11.34;71.02
21781;BME280;52576;53.614;9.894;2023-06-01T05:03:03;101827.44;;;11.36;70.84
21781;BME280;52576;53.614;9.894;2023-06-01T05:05:08;101830.84;;;11.38;70.90
21781;BME280;52576;53.614;9.894;2023-06-01T05:07:12;101826.44;;;11.38;70.92
21781;BME280;52576;53.614;9.894;2023-06-01T05:09:16;101823.72;;;11.40;70.88
21781;BME280;52576;53.614;9.894;2023-06-01T05:11:20;101825.41;;;11.41;70.96
21781;BME280;52576;53.614;9.894;2023-06-01T05:13:24;101822.72;;;11.42;71.02
21781;BME280;52576;53.614;9.894;2023-06-01T05:15:28;101816.41;;;11.45;71.06
21781;BME280;52576;53.614;9.894;2023-06-01T05:17:32;101820.66;;;11.47;71.09
21781;BME280;52576;53.614;9.894;2023-06-01T05:19:40;101823.03;;;11.52;71.06
21781;BME280;52576;53.614;9.894;2023-06-01T05:21:45;101816.88;;;11.53;71.14
21781;BME280;52576;53.614;9.894;2023-06-01T05:23:49;101816.78;;;11.54;70.91
21781;BME280;52576;53.614;9.894;2023-06-01T05:25:53;101829.84;;;11.56;70.80
21781;BME280;52576;53.614;9.894;2023-06-01T05:28:07;101822.88;;;11.55;70.52
21781;BME280;52576;53.614;9.894;2023-06-01T05:30:13;101820.34;;;11.53;70.48
21781;BME280;52576;53.614;9.894;2023-06-01T05:32:19;101823.03;;;11.52;70.30
21781;BME280;52576;53.614;9.894;2023-06-01T05:34:22;101814.41;;;11.50;70.24
21781;BME280;52576;53.614;9.894;2023-06-01T05:36:26;101815.34;;;11.49;70.18
21781;BME280;52576;53.614;9.894;2023-06-01T05:38:32;101815.34;;;11.49;70.04
21781;BME280;52576;53.614;9.894;2023-06-01T05:40:36;101814.41;;;11.50;69.99
21781;BME280;52576;53.614;9.894;2023-06-01T05:42:40;101816.19;;;11.49;69.71
21781;BME280;52576;53.614;9.894;2023-06-01T05:44:45;101818.72;;;11.51;69.80
21781;BME280;52576;53.614;9.894;2023-06-01T05:46:48;101818.66;;;11.52;69.61
21781;BME280;52576;53.614;9.894;2023-06-01T05:48:52;101812.53;;;11.52;69.44
21781;BME280;52576;53.614;9.894;2023-06-01T05:50:58;101814.31;;;11.51;69.50
21781;BME280;52576;53.614;9.894;2023-06-01T05:53:02;101818.81;;;11.49;69.42
21781;BME280;52576;53.614;9.894;2023-06-01T05:55:08;101814.56;;;11.47;69.30
21781;BME280;52576;53.614;9.894;2023-06-01T05:57:12;101809.47;;;11.44;69.58
21781;BME280;52576;53.614;9.894;2023-06-01T05:59:15;101818.31;;;11.43;69.71
21781;BME280;52576;53.614;9.894;2023-06-01T06:01:19;101813.06;;;11.43;69.73
21781;BME280;52576;53.614;9.894;2023-06-01T06:03:24;101814.72;;;11.44;69.73
21781;BME280;52576;53.614;9.894;2023-06-01T06:05:28;101815.50;;;11.46;69.70
21781;BME280;52576;53.614;9.894;2023-06-01T06:07:31;101806.69;;;11.47;69.72
21781;BME280;52576;53.614;9.894;2023-06-01T06:09:35;101814.47;;;11.48;69.72
21781;BME280;52576;53.614;9.894;2023-06-01T06:11:40;101807.47;;;11.49;69.68
21781;BME280;52576;53.614;9.894;2023-06-01T06:13:43;101812.53;;;11.52;69.78
21781;BME280;52576;53.614;9.894;2023-06-01T06:15:47;101803.56;;;11.56;69.97
21781;BME280;52576;53.614;9.894;2023-06-01T06:17:50;101813.00;;;11.60;69.85
21781;BME280;52576;53.614;9.894;2023-06-01T06:19:54;101810.88;;;11.67;69.79
21781;BME280;52576;53.614;9.894;2023-06-01T06:21:57;101809.03;;;11.69;69.88
21781;BME280;52576;53.614;9.894;2023-06-01T06:24:01;101801.78;;;11.72;70.04
21781;BME280;52576;53.614;9.894;2023-06-01T06:26:05;101802.56;;;11.74;69.91
21781;BME280;52576;53.614;9.894;2023-06-01T06:28:10;101805.06;;;11.77;69.76
21781;BME280;52576;53.614;9.894;2023-06-01T06:30:14;101809.38;;;11.78;69.75
21781;BME280;52576;53.614;9.894;2023-06-01T06:32:18;101805.66;;;11.82;69.64
21781;BME280;52576;53.614;9.894;2023-06-01T06:34:21;101817.69;;;11.86;69.72
21781;BME280;52576;53.614;9.894;2023-06-01T06:36:25;101812.25;;;11.89;69.87
21781;BME280;52576;53.614;9.894;2023-06-01T06:38:28;101818.19;;;11.93;69.50
21781;BME280;52576;53.614;9.894;2023-06-01T06:40:32;101819.03;;;11.94;69.55
21781;BME280;52576;53.614;9.894;2023-06-01T06:42:35;101819.97;;;11.93;69.57
21781;BME280;52576;53.614;9.894;2023-06-01T06:44:40;101811.91;;;11.96;69.50
21781;BME280;52576;53.614;9.894;2023-06-01T06:46:44;101816.97;;;11.99;69.15
21781;BME280;52576;53.614;9.894;2023-06-01T06:48:47;101806.47;;;11.99;68.87
21781;BME280;52576;53.614;9.894;2023-06-01T06:50:51;101808.16;;;12.00;68.75
21781;BME280;52576;53.614;9.894;2023-06-01T06:52:54;101797.56;;;12.01;68.58
21781;BME280;52576;53.614;9.894;2023-06-01T06:54:58;101802.75;;;12.03;68.35
21781;BME280;52576;53.614;9.894;2023-06-01T06:57:01;101808.00;;;12.03;68.34
21781;BME280;52576;53.614;9.894;2023-06-01T06:59:05;101806.13;;;12.05;68.22
21781;BME280;52576;53.614;9.894;2023-06-01T07:01:11;101807.66;;;12.09;68.01
21781;BME280;52576;53.614;9.894;2023-06-01T07:03:14;101805.72;;;12.12;68.04
21781;BME280;52576;53.614;9.894;2023-06-01T07:05:19;101809.78;;;12.18;68.15
21781;BME280;52576;53.614;9.894;2023-06-01T07:07:22;101802.28;;;12.26;67.86
21781;BME280;52576;53.614;9.894;2023-06-01T07:09:26;101801.00;;;12.33;67.85
21781;BME280;52576;53.614;9.894;2023-06-01T07:11:30;101800.66;;;12.39;67.60
21781;BME280;52576;53.614;9.894;2023-06-01T07:13:34;101810.81;;;12.45;67.56
21781;BME280;52576;53.614;9.894;2023-06-01T07:15:37;101807.06;;;12.49;67.58
21781;BME280;52576;53.614;9.894;2023-06-01T07:17:43;101805.94;;;12.53;67.40
21781;BME280;52576;53.614;9.894;2023-06-01T07:19:47;101819.75;;;12.57;67.27
21781;BME280;52576;53.614;9.894;2023-06-01T07:21:50;101805.69;;;12.58;67.12
21781;BME280;52576;53.614;9.894;2023-06-01T07:23:54;101809.16;;;12.58;67.08
21781;BME280;52576;53.614;9.894;2023-06-01T07:25:58;101816.03;;;12.61;67.19
21781;BME280;52576;53.614;9.894;2023-06-01T07:28:02;101820.25;;;12.64;67.31
21781;BME280;52576;53.614;9.894;2023-06-01T07:30:10;101813.03;;;12.67;67.55
21781;BME280;52576;53.614;9.894;2023-06-01T07:32:14;101817.28;;;12.70;67.22
21781;BME280;52576;53.614;9.894;2023-06-01T07:34:19;101815.41;;;12.72;67.11
21781;BME280;52576;53.614;9.894;2023-06-01T07:36:23;101804.88;;;12.72;67.20
21781;BME280;52576;53.614;9.894;2023-06-01T07:38:27;101811.91;;;12.71;67.18
21781;BME280;52576;53.614;9.894;2023-06-01T07:40:30;101806.66;;;12.71;66.90
21781;BME280;52576;53.614;9.894;2023-06-01T07:42:34;101812.78;;;12.72;67.30
21781;BME280;52576;53.614;9.894;2023-06-01T07:44:37;101811.06;;;12.71;67.00
21781;BME280;52576;53.614;9.894;2023-06-01T07:46:41;101809.19;;;12.73;67.15
21781;BME280;52576;53.614;9.894;2023-06-01T07:48:44;101802.03;;;12.75;66.82
21781;BME280;52576;53.614;9.894;2023-06-01T07:50:49;101805.44;;;12.77;66.75
21781;BME280;52576;53.614;9.894;2023-06-01T07:52:53;101806.19;;;12.79;66.52
21781;BME280;52576;53.614;9.894;2023-06-01T07:54:57;101806.09;;;12.80;66.51
21781;BME280;52576;53.614;9.894;2023-06-01T07:57:00;101808.63;;;12.82;66.54
21781;BME280;52576;53.614;9.894;2023-06-01T07:59:06;101798.97;;;12.82;66.34
21781;BME280;52576;53.614;9.894;2023-06-01T08:01:09;101804.22;;;12.82;66.49
21781;BME280;52576;53.614;9.894;2023-06-01T08:03:13;101799.81;;;12.83;66.38
21781;BME280;52576;53.614;9.894;2023-06-01T08:05:17;101804.03;;;12.85;66.45
21781;BME280;52576;53.614;9.894;2023-06-01T08:07:22;101807.44;;;12.87;66.57
21781;BME280;52576;53.614;9.894;2023-06-01T08:09:31;101791.47;;;12.90;66.12
21781;BME280;52576;53.614;9.894;2023-06-01T08:11:34;101807.25;;;12.90;66.22
21781;BME280;52576;53.614;9.894;2023-06-01T08:13:38;101798.41;;;12.91;65.93
21781;BME280;52576;53.614;9.894;2023-06-01T08:15:43;101792.22;;;12.93;66.24
21781;BME280;52576;53.614;9.894;2023-06-01T08:17:49;101800.78;;;12.96;66.20
21781;BME280;52576;53.614;9.894;2023-06-01T08:19:53;101800.59;;;12.99;66.14
21781;BME280;52576;53.614;9.894;2023-06-01T08:21:58;101795.13;;;13.02;66.19
21781;BME280;52576;53.614;9.894;2023-06-01T08:24:04;101798.50;;;13.04;66.33
21781;BME280;52576;53.614;9.894;2023-06-01T08:26:07;101799.84;;;13.11;65.89
21781;BME280;52576;53.614;9.894;2023-06-01T08:28:11;101797.81;;;13.16;65.85
21781;BME280;52576;53.614;9.894;2023-06-01T08:30:14;101799.31;;;13.20;65.56
21781;BME280;52576;53.614;9.894;2023-06-01T08:32:18;101791.41;;;13.20;65.61
21781;BME280;52576;53.614;9.894;2023-06-01T08:34:21;101795.75;;;13.21;65.71
21781;BME280;52576;53.614;9.894;2023-06-01T08:36:25;101795.56;;;13.24;65.83
21781;BME280;52576;53.614;9.894;2023-06-01T08:38:28;101800.69;;;13.26;65.85
21781;BME280;52576;53.614;9.894;2023-06-01T08:40:35;101799.66;;;13.29;65.87
21781;BME280;52576;53.614;9.894;2023-06-01T08:42:46;101804.94;;;13.29;65.79
21781;BME280;52576;53.614;9.894;2023-06-01T08:44:53;101805.78;;;13.29;65.83
21781;BME280;52576;53.614;9.894;2023-06-01T08:46:57;101804.09;;;13.28;65.81
21781;BME280;52576;53.614;9.894;2023-06-01T08:49:01;101804.19;;;13.27;66.01
21781;BME280;52576;53.614;9.894;2023-06-01T08:51:05;101808.72;;;13.24;65.83
21781;BME280;52576;53.614;9.894;2023-06-01T08:53:09;101809.66;;;13.23;65.43
21781;BME280;52576;53.614;9.894;2023-06-01T08:55:13;101798.19;;;13.24;65.31
21781;BME280;52576;53.614;9.894;2023-06-01T08:57:19;101799.66;;;13.29;65.52
21781;BME280;52576;53.614;9.894;2023-06-01T08:59:23;101790.44;;;13.36;65.18
21781;BME280;52576;53.614;9.894;2023-06-01T09:01:26;101792.72;;;13.42;64.70
21781;BME280;52576;53.614;9.894;2023-06-01T09:03:30;101801.19;;;13.47;64.47
21781;BME280;52576;53.614;9.894;2023-06-01T09:05:34;101797.41;;;13.51;64.49
21781;BME280;52576;53.614;9.894;2023-06-01T09:07:37;101798.22;;;13.51;64.37
21781;BME280;52576;53.614;9.894;2023-06-01T09:09:42;101794.56;;;13.54;64.36
21781;BME280;52576;53.614;9.894;2023-06-01T09:11:46;101801.53;;;13.55;64.34
21781;BME280;52576;53.614;9.894;2023-06-01T09:13:51;101796.16;;;13.56;64.38
21781;BME280;52576;53.614;9.894;2023-06-01T09:15:54;101804.72;;;13.60;64.04
21781;BME280;52576;53.614;9.894;2023-06-01T09:18:08;101804.44;;;13.65;63.54
21781;BME280;52576;53.614;9.894;2023-06-01T09:20:13;101801.50;;;13.69;63.16
21781;BME280;52576;53.614;9.894;2023-06-01T09:22:17;101808.28;;;13.73;63.02
21781;BME280;52576;53.614;9.894;2023-06-01T09:24:21;101795.53;;;13.80;62.80
21781;BME280;52576;53.614;9.894;2023-06-01T09:26:26;101808.22;;;13.87;62.52
21781;BME280;52576;53.614;9.894;2023-06-01T09:28:29;101794.75;;;13.92;62.27
21781;BME280;52576;53.614;9.894;2023-06-01T09:30:42;101802.47;;;13.95;61.86
21781;BME280;52576;53.614;9.894;2023-06-01T09:32:47;101796.38;;;13.95;62.18
21781;BME280;52576;53.614;9.894;2023-06-01T09:34:53;101796.38;;;13.95;61.94
21781;BME280;52576;53.614;9.894;2023-06-01T09:37:05;101789.00;;;14.00;61.86
21781;BME280;52576;53.614;9.894;2023-06-01T09:39:11;101788.59;;;14.06;62.07
21781;BME280;52576;53.614;9.894;2023-06-01T09:41:15;101784.59;;;14.13;61.75
21781;BME280;52576;53.614;9.894;2023-06-01T09:43:19;101796.44;;;14.20;61.13
21781;BME280;52576;53.614;9.894;2023-06-01T09:45:23;101801.63;;;14.21;61.26
21781;BME280;52576;53.614;9.894;2023-06-01T09:47:29;101788.44;;;14.21;60.84
21781;BME280;52576;53.614;9.894;2023-06-01T09:49:35;101789.38;;;14.20;61.01
21781;BME280;52576;53.614;9.894;2023-06-01T09:51:40;101785.91;;;14.20;61.07
21781;BME280;52576;53.614;9.894;2023-06-01T09:53:44;101784.88;;;14.22;61.18
21781;BME280;52576;53.614;9.894;2023-06-01T09:55:57;101780.03;;;14.29;61.19
21781;BME280;52576;53.614;9.894;2023-06-01T09:58:17;101776.88;;;14.37;60.60
21781;BME280;52576;53.614;9.894;2023-06-01T10:00:23;101773.13;;;14.41;60.42
21781;BME280;52576;53.614;9.894;2023-06-01T10:02:30;101778.00;;;14.47;60.52
21781;BME280;52576;53.614;9.894;2023-06-01T10:04:40;101788.13;;;14.53;60.20
21781;BME280;52576;53.614;9.894;2023-06-01T10:06:44;101776.50;;;14.55;60.24
21781;BME280;52576;53.614;9.894;2023-06-01T10:08:48;101782.53;;;14.57;60.29
21781;BME280;52576;53.614;9.894;2023-06-01T10:10:53;101775.44;;;14.58;60.13
21781;BME280;52576;53.614;9.894;2023-06-01T10:12:58;101769.13;;;14.60;60.02
21781;BME280;52576;53.614;9.894;2023-06-01T10:15:01;101780.22;;;14.66;59.88
21781;BME280;52576;53.614;9.894;2023-06-01T10:17:22;101768.06;;;14.63;60.40
21781;BME280;52576;53.614;9.894;2023-06-01T10:19:27;101774.19;;;14.64;59.96
21781;BME280;52576;53.614;9.894;2023-06-01T10:21:32;101772.31;;;14.66;59.41
21781;BME280;52576;53.614;9.894;2023-06-01T10:23:36;101773.16;;;14.66;59.19
21781;BME280;52576;53.614;9.894;2023-06-01T10:25:42;101760.06;;;14.65;58.67
21781;BME280;52576;53.614;9.894;2023-06-01T10:27:54;101770.41;;;14.68;58.78
21781;BME280;52576;53.614;9.894;2023-06-01T10:29:58;101775.28;;;14.74;58.96
21781;BME280;52576;53.614;9.894;2023-06-01T10:32:02;101776.75;;;14.78;58.67
21781;BME280;52576;53.614;9.894;2023-06-01T10:34:06;101765.34;;;14.77;58.28
21781;BME280;52576;53.614;9.894;2023-06-01T10:36:15;101768.94;;;14.76;57.88
21781;BME280;52576;53.614;9.894;2023-06-01T10:38:23;101778.66;;;14.76;57.86
21781;BME280;52576;53.614;9.894;2023-06-01T10:40:26;101769.78;;;14.77;57.65
21781;BME280;52576;53.614;9.894;2023-06-01T10:42:37;101774.63;;;14.83;57.69
21781;BME280;52576;53.614;9.894;2023-06-01T10:44:45;101772.31;;;14.91;57.60
21781;BME280;52576;53.614;9.894;2023-06-01T10:46:48;101770.09;;;14.98;57.53
21781;BME280;52576;53.614;9.894;2023-06-01T10:48:53;101785.63;;;15.02;57.61
21781;BME280;52576;53.614;9.894;2023-06-01T10:51:17;101769.69;;;15.04;57.48
21781;BME280;52576;53.614;9.894;2023-06-01T10:53:26;101771.69;;;15.00;57.81
21781;BME280;52576;53.614;9.894;2023-06-01T10:55:30;101769.16;;;14.99;57.61